Time;durP1;ratioP1;P1;durP2;ratioP2;P2;SDS_P1;SDS_P2;PMS_P1;PMS_P2;Temp;Humidity;BMP_temperature;BMP_pressure;BME280_temperature;BME280_humidity;BME280_pressure;Samples;Min_cycle;Max_cycle;Signal;HPM_P1;HPM_P2
2023/04/18 00:00:12;;;;;;;;;;;;;;;;;;5031000;28;19920;-68
2023/04/18 00:02:38;;;;;;;;;;;;;;;;;;5032659;28;19934;-67
2023/04/18 00:05:04;;;;;;;;;;;;;;;;;;5050232;28;19920;-68
2023/04/18 00:07:29;;;;;;;;;;;;;;;;;;5030569;28;20131;-67
2023/04/18 00:09:57;;;;;;;;;;;;;;;;;;5049334;28;20042;-67
2023/04/18 00:12:25;;;;;;;;;;;;;;;;;;5047583;28;20311;-67
2023/04/18 00:14:53;;;;;;;;;;;;;;;;;;5047001;28;20382;-67
2023/04/18 00:17:21;;;;;;;;;;;;;;;;;;5048543;28;21462;-66
2023/04/18 00:19:47;;;;;;;;;;;;;;;;;;5067864;28;19996;-68
2023/04/18 00:22:12;;;;;;;;;;;;;;;;;;5048447;28;20018;-67
2023/04/18 00:24:38;;;;;;;;;;;;;;;;;;5048307;28;20376;-66
2023/04/18 00:27:03;;;;;;;;;;;;;;;;;;5066337;28;21758;-67
2023/04/18 00:32:51;;;;;;;;;;;;;;;;;;5066764;28;19957;-68
2023/04/18 00:35:16;;;;;;;;;;;;;;;;;;5048650;28;19924;-68
2023/04/18 00:37:44;;;;;;;;;;;;;;;;;;5047118;28;19969;-68
2023/04/18 00:40:12;;;;;;;;;;;;;;;;;;5032236;28;19933;-68
2023/04/18 00:42:40;;;;;;;;;;;;;;;;;;5044923;28;20547;-67
2023/04/18 00:45:08;;;;;;;;;;;;;;;;;;5066810;28;19958;-68
2023/04/18 00:47:36;;;;;;;;;;;;;;;;;;5046713;28;19920;-66
2023/04/18 00:50:01;;;;;;;;;;;;;;;;;;5048201;28;19920;-67
2023/04/18 00:55:44;;;;;;;;;;;;;;;;;;5066473;28;19923;-67
2023/04/18 00:58:10;;;;;;;;;;;;;;;;;;5026910;28;19970;-67
2023/04/18 01:00:37;;;;;;;;;;;;;;;;;;5062952;28;19920;-68
2023/04/18 01:03:07;;;;;;;;;;;;;;;;;;5028692;28;19931;-67
2023/04/18 01:05:35;;;;;;;;;;;;;;;;;;5063631;28;19927;-67
2023/04/18 01:08:00;;;;;;;;;;;;;;;;;;5027148;28;19924;-66
2023/04/18 01:10:26;;;;;;;;;;;;;;;;;;5040913;28;20163;-68
2023/04/18 01:12:52;;;;;;;;;;;;;;;;;;5031735;28;19965;-67
2023/04/18 01:15:17;;;;;;;;;;;;;;;;;;5045229;28;19968;-68
2023/04/18 01:17:43;;;;;;;;;;;;;;;;;;5045683;28;19924;-66
2023/04/18 01:20:08;;;;;;;;;;;;;;;;;;5062748;28;19922;-67
2023/04/18 01:22:33;;;;;;;;;;;;;;;;;;5028489;28;20037;-66
2023/04/18 01:24:59;;;;;;;;;;;;;;;;;;5026436;28;19955;-66
2023/04/18 01:27:29;;;;;;;;;;;;;;;;;;5042801;28;20242;-68
2023/04/18 01:29:54;;;;;;;;;;;;;;;;;;5030135;28;19967;-68
2023/04/18 01:32:20;;;;;;;;;;;;;;;;;;5065285;28;20051;-68
2023/04/18 01:34:48;;;;;;;;;;;;;;;;;;5064659;28;19920;-69
2023/04/18 01:37:13;;;;;;;;;;;;;;;;;;5046287;28;20389;-68
2023/04/18 01:39:38;;;;;;;;;;;;;;;;;;5046326;28;19936;-68
2023/04/18 01:42:09;;;;;;;;;;;;;;;;;;5030071;28;19920;-68
2023/04/18 01:44:35;;;;;;;;;;;;;;;;;;5044181;28;20570;-68
2023/04/18 01:47:02;;;;;;;;;;;;;;;;;;5029593;28;20370;-66
2023/04/18 01:49:30;;;;;;;;;;;;;;;;;;5030699;28;19916;-66
2023/04/18 01:52:00;;;;;;;;;;;;;;;;;;5061565;28;19923;-67
2023/04/18 01:54:28;;;;;;;;;;;;;;;;;;5046281;28;19995;-67
2023/04/18 01:56:53;;;;;;;;;;;;;;;;;;5028586;28;19973;-68
2023/04/18 01:59:19;;;;;;;;;;;;;;;;;;5032065;28;19924;-66
2023/04/18 02:01:47;;;;;;;;;;;;;;;;;;5044582;28;20025;-66
2023/04/18 02:04:12;;;;;;;;;;;;;;;;;;5047622;28;19916;-68
2023/04/18 02:06:37;;;;;;;;;;;;;;;;;;5047977;28;20356;-68
2023/04/18 02:09:03;;;;;;;;;;;;;;;;;;5060768;28;20391;-68
2023/04/18 02:11:31;;;;;;;;;;;;;;;;;;5045066;28;19923;-68
2023/04/18 02:13:59;;;;;;;;;;;;;;;;;;5028814;28;20754;-66
2023/04/18 02:16:24;;;;;;;;;;;;;;;;;;5045417;28;19920;-68
2023/04/18 02:18:51;;;;;;;;;;;;;;;;;;5027803;28;21470;-67
2023/04/18 02:21:20;;;;;;;;;;;;;;;;;;5034113;28;19916;-67
2023/04/18 02:23:45;;;;;;;;;;;;;;;;;;5065232;28;19977;-67
2023/04/18 02:26:11;;;;;;;;;;;;;;;;;;5029734;28;19915;-68
2023/04/18 02:28:39;;;;;;;;;;;;;;;;;;5062810;28;20440;-68
2023/04/18 02:31:05;;;;;;;;;;;;;;;;;;5046433;28;19924;-67
2023/04/18 02:36:27;;;;;;;;;;;;;;;;;;5045236;28;19920;-66
2023/04/18 02:38:55;;;;;;;;;;;;;;;;;;5046204;28;20278;-68
2023/04/18 02:41:23;;;;;;;;;;;;;;;;;;5028396;28;19916;-67
2023/04/18 02:43:52;;;;;;;;;;;;;;;;;;5047968;28;19951;-66
2023/04/18 02:46:17;;;;;;;;;;;;;;;;;;5043121;28;20714;-67
2023/04/18 02:48:45;;;;;;;;;;;;;;;;;;5046023;28;19930;-67
2023/04/18 02:51:11;;;;;;;;;;;;;;;;;;5026226;28;19916;-67
2023/04/18 02:53:36;;;;;;;;;;;;;;;;;;5043901;28;20047;-68
2023/04/18 02:56:07;;;;;;;;;;;;;;;;;;5046214;28;19928;-66
2023/04/18 02:58:34;;;;;;;;;;;;;;;;;;5059981;28;19924;-66
2023/04/18 03:00:59;;;;;;;;;;;;;;;;;;5045728;28;20133;-68
2023/04/18 03:03:25;;;;;;;;;;;;;;;;;;5027662;28;20010;-68
2023/04/18 03:05:50;;;;;;;;;;;;;;;;;;5045531;28;20414;-68
2023/04/18 03:08:15;;;;;;;;;;;;;;;;;;5062359;28;19916;-69
2023/04/18 03:13:57;;;;;;;;;;;;;;;;;;5041355;28;19973;-68
2023/04/18 03:16:23;;;;;;;;;;;;;;;;;;5042330;28;19928;-66
2023/04/18 03:22:04;;;;;;;;;;;;;;;;;;5047187;28;20109;-67
2023/04/18 03:24:32;;;;;;;;;;;;;;;;;;5061992;28;20089;-66
2023/04/18 03:26:59;;;;;;;;;;;;;;;;;;5047619;28;20068;-66
2023/04/18 03:32:40;;;;;;;;;;;;;;;;;;5046805;28;19974;-66
2023/04/18 03:35:10;;;;;;;;;;;;;;;;;;5045522;28;19932;-68
2023/04/18 03:37:37;;;;;;;;;;;;;;;;;;5025971;28;19928;-67
2023/04/18 03:40:04;;;;;;;;;;;;;;;;;;5030416;28;19920;-67
2023/04/18 03:45:49;;;;;;;;;;;;;;;;;;5046968;28;20268;-67
2023/04/18 03:48:17;;;;;;;;;;;;;;;;;;5046454;28;19920;-66
2023/04/18 03:50:42;;;;;;;;;;;;;;;;;;5029448;28;19999;-67
2023/04/18 03:53:08;;;;;;;;;;;;;;;;;;5028181;28;19916;-67
2023/04/18 03:55:33;;;;;;;;;;;;;;;;;;5047730;28;19921;-67
2023/04/18 03:57:58;;;;;;;;;;;;;;;;;;5028402;28;19960;-66
2023/04/18 04:00:23;;;;;;;;;;;;;;;;;;5044887;28;19954;-67
2023/04/18 04:02:49;;;;;;;;;;;;;;;;;;5046033;28;19974;-67
2023/04/18 04:05:14;;;;;;;;;;;;;;;;;;5027999;28;20009;-66
2023/04/18 04:07:43;;;;;;;;;;;;;;;;;;5045440;28;19916;-66
2023/04/18 04:10:08;;;;;;;;;;;;;;;;;;5044825;28;19931;-67
2023/04/18 04:12:36;;;;;;;;;;;;;;;;;;5043819;28;19916;-68
2023/04/18 04:15:01;;;;;;;;;;;;;;;;;;5044612;28;19920;-67
2023/04/18 04:17:27;;;;;;;;;;;;;;;;;;5044826;28;19968;-65
2023/04/18 04:19:52;;;;;;;;;;;;;;;;;;5047314;28;20445;-67
2023/04/18 04:22:17;;;;;;;;;;;;;;;;;;5061406;28;20286;-67
2023/04/18 04:24:47;;;;;;;;;;;;;;;;;;5046685;28;19920;-67
2023/04/18 04:27:13;;;;;;;;;;;;;;;;;;5045740;28;19951;-68
2023/04/18 04:29:42;;;;;;;;;;;;;;;;;;5028467;28;20125;-67
2023/04/18 04:32:07;;;;;;;;;;;;;;;;;;5042051;28;19917;-66
2023/04/18 04:34:36;;;;;;;;;;;;;;;;;;5045900;28;20425;-67
2023/04/18 04:37:01;;;;;;;;;;;;;;;;;;5046261;28;19917;-67
2023/04/18 04:39:26;;;;;;;;;;;;;;;;;;5043699;28;19920;-67
2023/04/18 04:41:52;;;;;;;;;;;;;;;;;;5044229;28;19923;-67
2023/04/18 04:44:18;;;;;;;;;;;;;;;;;;5043908;28;19924;-67
2023/04/18 04:46:43;;;;;;;;;;;;;;;;;;5046137;28;19927;-68
2023/04/18 04:49:11;;;;;;;;;;;;;;;;;;5045706;28;19916;-67
2023/04/18 04:51:36;;;;;;;;;;;;;;;;;;5044498;28;19948;-66
2023/04/18 04:54:02;;;;;;;;;;;;;;;;;;5030508;28;20322;-67
2023/04/18 04:56:29;;;;;;;;;;;;;;;;;;5044703;28;20348;-66
2023/04/18 04:58:55;;;;;;;;;;;;;;;;;;5045797;28;19924;-65
2023/04/18 05:01:20;;;;;;;;;;;;;;;;;;5028547;28;20011;-67
2023/04/18 05:03:46;;;;;;;;;;;;;;;;;;5027415;28;20568;-68
2023/04/18 05:06:19;;;;;;;;;;;;;;;;;;5043925;28;20502;-66
2023/04/18 05:08:49;;;;;;;;;;;;;;;;;;5044061;28;19924;-66
2023/04/18 05:11:15;;;;;;;;;;;;;;;;;;5040200;28;19928;-67
2023/04/18 05:13:45;;;;;;;;;;;;;;;;;;5027592;28;19928;-67
2023/04/18 05:16:11;;;;;;;;;;;;;;;;;;5044496;28;19920;-67
2023/04/18 05:18:40;;;;;;;;;;;;;;;;;;5045659;28;20478;-66
2023/04/18 05:21:08;;;;;;;;;;;;;;;;;;5042275;28;19920;-68
2023/04/18 05:23:36;;;;;;;;;;;;;;;;;;5043390;28;20001;-68
2023/04/18 05:26:01;;;;;;;;;;;;;;;;;;5044617;28;19944;-69
2023/04/18 05:28:26;;;;;;;;;;;;;;;;;;5041427;28;20338;-66
2023/04/18 05:30:59;;;;;;;;;;;;;;;;;;5046132;28;20327;-65
2023/04/18 05:33:27;;;;;;;;;;;;;;;;;;5027199;28;20279;-67
2023/04/18 05:35:53;;;;;;;;;;;;;;;;;;5045614;28;19932;-66
2023/04/18 05:38:18;;;;;;;;;;;;;;;;;;5042216;28;19920;-67
2023/04/18 05:44:00;;;;;;;;;;;;;;;;;;5043969;28;19927;-66
2023/04/18 05:46:28;;;;;;;;;;;;;;;;;;5043324;28;19923;-67
2023/04/18 05:48:54;;;;;;;;;;;;;;;;;;5044214;28;19959;-66
2023/04/18 05:51:19;;;;;;;;;;;;;;;;;;5044979;28;19963;-67
2023/04/18 05:53:45;;;;;;;;;;;;;;;;;;5026361;28;19920;-68
2023/04/18 05:56:10;;;;;;;;;;;;;;;;;;5023351;28;19923;-68
2023/04/18 05:58:38;;;;;;;;;;;;;;;;;;5026924;28;19977;-66
2023/04/18 06:01:03;;;;;;;;;;;;;;;;;;5043480;28;19943;-67
2023/04/18 06:03:31;;;;;;;;;;;;;;;;;;5026865;28;19924;-65
2023/04/18 06:05:56;;;;;;;;;;;;;;;;;;5042231;28;19916;-66
2023/04/18 06:08:21;;;;;;;;;;;;;;;;;;5044594;28;19916;-68
2023/04/18 06:10:47;;;;;;;;;;;;;;;;;;5027181;28;19944;-68
2023/04/18 06:13:12;;;;;;;;;;;;;;;;;;5027166;28;19920;-65
2023/04/18 06:15:37;;;;;;;;;;;;;;;;;;5026011;28;19916;-66
2023/04/18 06:18:05;;;;;;;;;;;;;;;;;;5026623;28;19998;-68
2023/04/18 06:20:30;;;;;;;;;;;;;;;;;;5026658;28;19921;-67
2023/04/18 06:22:58;;;;;;;;;;;;;;;;;;5025212;28;20282;-68
2023/04/18 06:25:26;;;;;;;;;;;;;;;;;;5043202;28;19925;-66
2023/04/18 06:28:07;;;;;;;;;;;;;;;;;;5041800;28;19936;-68
2023/04/18 06:30:33;;;;;;;;;;;;;;;;;;5026607;28;19916;-66
2023/04/18 06:32:58;;;;;;;;;;;;;;;;;;5042391;28;19920;-66
2023/04/18 06:35:24;;;;;;;;;;;;;;;;;;5042929;28;20011;-68
2023/04/18 06:41:05;;;;;;;;;;;;;;;;;;5043767;28;19927;-68
2023/04/18 06:43:31;;;;;;;;;;;;;;;;;;5039420;28;19921;-66
2023/04/18 06:45:56;;;;;;;;;;;;;;;;;;5025491;28;19916;-67
2023/04/18 06:48:21;;;;;;;;;;;;;;;;;;5026292;28;20360;-68
2023/04/18 06:50:49;;;;;;;;;;;;;;;;;;5028082;28;19921;-68
2023/04/18 06:53:20;;;;;;;;;;;;;;;;;;5025779;28;19931;-68
2023/04/18 06:55:45;;;;;;;;;;;;;;;;;;5043356;28;19924;-67
2023/04/18 06:58:12;;;;;;;;;;;;;;;;;;5028943;28;19924;-71
2023/04/18 07:00:37;;;;;;;;;;;;;;;;;;5047599;28;19962;-69
2023/04/18 07:03:08;;;;;;;;;;;;;;;;;;5029365;28;19928;-65
2023/04/18 07:05:36;;;;;;;;;;;;;;;;;;5031586;28;19970;-68
2023/04/18 07:08:04;;;;;;;;;;;;;;;;;;5046141;28;20031;-68
2023/04/18 07:10:30;;;;;;;;;;;;;;;;;;5044297;28;20490;-69
2023/04/18 07:12:55;;;;;;;;;;;;;;;;;;5047145;28;20041;-70
2023/04/18 07:15:26;;;;;;;;;;;;;;;;;;5045693;28;20029;-69
2023/04/18 07:17:54;;;;;;;;;;;;;;;;;;5031071;28;19924;-69
2023/04/18 07:20:20;;;;;;;;;;;;;;;;;;5048640;28;20134;-69
2023/04/18 07:22:46;;;;;;;;;;;;;;;;;;5044489;28;19993;-68
2023/04/18 07:25:15;;;;;;;;;;;;;;;;;;5030865;28;20002;-68
2023/04/18 07:27:43;;;;;;;;;;;;;;;;;;5045953;28;20023;-67
2023/04/18 07:30:08;;;;;;;;;;;;;;;;;;5047644;28;19917;-69
2023/04/18 07:32:36;;;;;;;;;;;;;;;;;;5048417;28;21585;-68
2023/04/18 07:35:04;;;;;;;;;;;;;;;;;;5043046;28;20288;-69
2023/04/18 07:37:29;;;;;;;;;;;;;;;;;;5031257;28;19927;-68
2023/04/18 07:39:55;;;;;;;;;;;;;;;;;;5045385;28;20022;-68
2023/04/18 07:42:20;;;;;;;;;;;;;;;;;;5045053;28;20411;-70
2023/04/18 07:44:46;;;;;;;;;;;;;;;;;;5028839;28;19992;-68
2023/04/18 07:47:12;;;;;;;;;;;;;;;;;;5045430;28;19916;-70
2023/04/18 07:49:40;;;;;;;;;;;;;;;;;;5046989;28;19980;-68
2023/04/18 07:52:05;;;;;;;;;;;;;;;;;;5045471;28;19920;-66
2023/04/18 07:57:51;;;;;;;;;;;;;;;;;;5042457;28;20777;-69
2023/04/18 08:00:19;;;;;;;;;;;;;;;;;;5045728;28;19970;-68
2023/04/18 08:02:47;;;;;;;;;;;;;;;;;;5027556;28;19940;-68
2023/04/18 08:05:17;;;;;;;;;;;;;;;;;;5028023;28;19928;-69
2023/04/18 08:10:34;;;;;;;;;;;;;;;;;;5044760;28;19938;-66
2023/04/18 08:13:02;;;;;;;;;;;;;;;;;;5043845;28;19920;-69
2023/04/18 08:15:31;;;;;;;;;;;;;;;;;;5045455;28;19921;-64
2023/04/18 08:17:56;;;;;;;;;;;;;;;;;;5030141;28;19939;-65
2023/04/18 08:20:21;;;;;;;;;;;;;;;;;;5027986;28;19916;-68
2023/04/18 08:22:47;;;;;;;;;;;;;;;;;;5025978;28;21699;-67
2023/04/18 08:25:15;;;;;;;;;;;;;;;;;;5045848;28;19920;-69
2023/04/18 08:30:57;;;;;;;;;;;;;;;;;;5047285;28;19946;-65
2023/04/18 08:33:23;;;;;;;;;;;;;;;;;;5028178;28;19916;-67
2023/04/18 08:35:51;;;;;;;;;;;;;;;;;;5029759;28;20739;-68
2023/04/18 08:41:33;;;;;;;;;;;;;;;;;;5045965;28;19923;-65
2023/04/18 08:44:03;;;;;;;;;;;;;;;;;;5028313;28;20331;-67
2023/04/18 08:46:31;;;;;;;;;;;;;;;;;;5044094;28;20941;-68
2023/04/18 08:48:59;;;;;;;;;;;;;;;;;;5047049;28;19920;-65
2023/04/18 08:51:25;;;;;;;;;;;;;;;;;;5046408;28;20110;-65
2023/04/18 08:53:50;;;;;;;;;;;;;;;;;;5029423;28;20331;-65
2023/04/18 08:56:24;;;;;;;;;;;;;;;;;;5043115;28;20112;-67
2023/04/18 08:58:58;;;;;;;;;;;;;;;;;;5027358;28;20283;-67
2023/04/18 09:01:24;;;;;;;;;;;;;;;;;;5041152;28;20002;-63
2023/04/18 09:03:52;;;;;;;;;;;;;;;;;;5046494;28;19936;-65
2023/04/18 09:09:16;;;;;;;;;;;;;;;;;;5045449;28;20046;-67
2023/04/18 09:11:46;;;;;;;;;;;;;;;;;;5042922;28;20017;-68
2023/04/18 09:14:16;;;;;;;;;;;;;;;;;;5028759;28;20436;-67
2023/04/18 09:16:41;;;;;;;;;;;;;;;;;;5045274;28;20428;-67
2023/04/18 09:19:09;;;;;;;;;;;;;;;;;;5026559;28;19928;-65
2023/04/18 09:21:34;;;;;;;;;;;;;;;;;;5043731;28;19962;-69
2023/04/18 09:24:00;;;;;;;;;;;;;;;;;;5043368;28;20039;-66
2023/04/18 09:26:27;;;;;;;;;;;;;;;;;;5044171;28;20652;-68
2023/04/18 09:28:57;;;;;;;;;;;;;;;;;;5045905;28;20039;-67
2023/04/18 09:31:22;;;;;;;;;;;;;;;;;;5044566;28;20057;-65
2023/04/18 09:33:48;;;;;;;;;;;;;;;;;;5028514;28;20030;-67
2023/04/18 09:36:19;;;;;;;;;;;;;;;;;;5022742;28;20260;-68
2023/04/18 09:38:45;;;;;;;;;;;;;;;;;;5041493;28;19931;-67
2023/04/18 09:41:10;;;;;;;;;;;;;;;;;;5042180;28;19921;-66
2023/04/18 09:43:35;;;;;;;;;;;;;;;;;;5043579;28;20734;-68
2023/04/18 09:46:01;;;;;;;;;;;;;;;;;;5045689;28;20360;-66
2023/04/18 09:48:26;;;;;;;;;;;;;;;;;;5039623;28;20710;-67
2023/04/18 09:54:11;;;;;;;;;;;;;;;;;;5210968;22;20285;-89
2023/04/18 09:56:37;;;;;;;;;;;;;;;;;;5073613;28;19911;-87
2023/04/18 09:59:02;;;;;;;;;;;;;;;;;;5077648;28;19935;-87
2023/04/18 10:01:28;;;;;;;;;;;;;;;;;;5086349;28;19923;-89
2023/04/18 10:03:55;;;;;;;;;;;;;;;;;;5091311;28;19923;-83
2023/04/18 10:06:20;;;;;;;;;;;;;;;;;;5079026;28;19912;-87
2023/04/18 10:08:46;;;;;;;;;;;;;;;;;;5094621;28;19919;-87
2023/04/18 10:11:14;;;;;;;;;;;;;;;;;;5082761;28;19911;-88
2023/04/18 10:13:39;;;;;;;;;;;;;;;;;;5073443;28;20035;-89
2023/04/18 10:16:05;;;;;;;;;;;;;;;;;;5071125;28;19912;-88
2023/04/18 10:18:31;;;;;;;;;;;;;;;;;;5069052;28;19920;-87
2023/04/18 10:20:57;;;;;;;;;;;;;;;;;;5072938;28;19947;-88
2023/04/18 10:23:23;;;;;;;;;;;;;;;;;;5076814;28;19913;-85
2023/04/18 10:25:49;;;;;;;;;;;;;;;;;;5066908;28;19996;-88
2023/04/18 10:28:14;;;;;;;;;;;;;;;;;;5074032;28;19958;-86
2023/04/18 10:30:41;;;;;;;;;;;;;;;;;;5092641;28;19927;-86
2023/04/18 10:33:06;;;;;;;;;;;;;;;;;;5075950;28;19912;-88
2023/04/18 10:35:47;;;;;;;;;;;;;;;;;;5090875;28;19912;-89
2023/04/18 10:38:21;;;;;;;;;;;;;;;;;;5078094;28;19916;-87
2023/04/18 10:40:46;;;;;;;;;;;;;;;;;;5062141;28;19917;-91
2023/04/18 10:43:12;;;;;;;;;;;;;;;;;;5085902;28;20006;-87
2023/04/18 10:45:38;;;;;;;;;;;;;;;;;;5084251;28;19973;-88
2023/04/18 10:48:03;;;;;;;;;;;;;;;;;;5090448;28;19931;-88
2023/04/18 10:50:34;;;;;;;;;;;;;;;;;;5065639;28;20015;-87
2023/04/18 10:53:00;;;;;;;;;;;;;;;;;;5060572;28;19924;-90
2023/04/18 10:55:25;;;;;;;;;;;;;;;;;;5058754;28;20367;-86
2023/04/18 10:57:55;;;;;;;;;;;;;;;;;;5061995;28;19919;-91
2023/04/18 11:00:21;;;;;;;;;;;;;;;;;;5068729;28;19916;-89
2023/04/18 11:02:47;;;;;;;;;;;;;;;;;;5098589;28;20045;-87
2023/04/18 11:05:13;;;;;;;;;;;;;;;;;;5062627;28;20018;-84
2023/04/18 11:07:38;;;;;;;;;;;;;;;;;;5078886;28;19911;-90
2023/04/18 11:10:03;;;;;;;;;;;;;;;;;;5058683;28;19930;-87
2023/04/18 11:12:34;;;;;;;;;;;;;;;;;;5079587;28;19919;-84
2023/04/18 11:15:03;;;;;;;;;;;;;;;;;;5061319;28;20027;-90
2023/04/18 11:17:34;;;;;;;;;;;;;;;;;;5079209;28;19959;-88
2023/04/18 11:20:07;;;;;;;;;;;;;;;;;;5097797;28;19916;-88
2023/04/18 11:22:33;;;;;;;;;;;;;;;;;;5097755;28;19955;-87
2023/04/18 11:24:58;;;;;;;;;;;;;;;;;;5065496;28;20017;-89
2023/04/18 11:27:25;;;;;;;;;;;;;;;;;;5066123;28;19912;-88
2023/04/18 11:30:03;;;;;;;;;;;;;;;;;;5083363;28;19941;-91
2023/04/18 11:32:31;;;;;;;;;;;;;;;;;;5019417;28;19947;-88
2023/04/18 11:35:09;;;;;;;;;;;;;;;;;;5002905;28;19953;-88
2023/04/18 11:38:16;;;;;;;;;;;;;;;;;;5025340;28;20020;-87
2023/04/18 11:40:50;;;;;;;;;;;;;;;;;;5020489;28;20404;-87
2023/04/18 11:43:19;;;;;;;;;;;;;;;;;;5027476;28;19925;-88
2023/04/18 11:45:49;;;;;;;;;;;;;;;;;;5024542;28;20477;-90
2023/04/18 11:48:15;;;;;;;;;;;;;;;;;;5023767;28;20152;-89
2023/04/18 11:50:44;;;;;;;;;;;;;;;;;;5037142;28;19920;-87
2023/04/18 11:53:09;;;;;;;;;;;;;;;;;;5030014;28;19912;-87
2023/04/18 11:55:35;;;;;;;;;;;;;;;;;;5013057;28;19973;-86
2023/04/18 11:58:05;;;;;;;;;;;;;;;;;;5011574;28;19967;-86
2023/04/18 12:00:31;;;;;;;;;;;;;;;;;;5007979;28;19913;-90
2023/04/18 12:03:00;;;;;;;;;;;;;;;;;;5018088;28;19922;-92
2023/04/18 12:05:27;;;;;;;;;;;;;;;;;;5065549;28;19943;-90
2023/04/18 12:07:56;;;;;;;;;;;;;;;;;;5069275;28;20285;-90
2023/04/18 12:10:23;;;;;;;;;;;;;;;;;;5060768;28;19908;-86
2023/04/18 12:12:49;;;;;;;;;;;;;;;;;;5060947;28;19931;-86
2023/04/18 12:15:15;;;;;;;;;;;;;;;;;;5070206;28;19935;-87
2023/04/18 12:17:41;;;;;;;;;;;;;;;;;;5060717;28;20274;-87
2023/04/18 12:20:08;;;;;;;;;;;;;;;;;;5075213;28;19924;-89
2023/04/18 12:22:34;;;;;;;;;;;;;;;;;;5089733;28;19913;-86
2023/04/18 12:25:01;;;;;;;;;;;;;;;;;;5068068;28;19981;-90
2023/04/18 12:27:28;;;;;;;;;;;;;;;;;;5046145;28;20333;-88
2023/04/18 12:29:59;;;;;;;;;;;;;;;;;;5066437;28;19912;-87
2023/04/18 12:32:25;;;;;;;;;;;;;;;;;;5050814;28;19916;-86
2023/04/18 12:34:56;;;;;;;;;;;;;;;;;;5051339;28;19996;-87
2023/04/18 12:37:24;;;;;;;;;;;;;;;;;;5047789;28;19920;-90
2023/04/18 12:39:50;;;;;;;;;;;;;;;;;;5080715;28;19943;-88
2023/04/18 12:42:32;;;;;;;;;;;;;;;;;;5048472;28;20009;-88
2023/04/18 12:44:58;;;;;;;;;;;;;;;;;;5048664;28;19944;-88
2023/04/18 12:47:23;;;;;;;;;;;;;;;;;;5046601;28;19913;-86
2023/04/18 12:49:52;;;;;;;;;;;;;;;;;;5082151;28;19916;-87
2023/04/18 12:52:21;;;;;;;;;;;;;;;;;;5083107;28;19912;-88
2023/04/18 12:54:47;;;;;;;;;;;;;;;;;;5072002;28;20547;-88
2023/04/18 13:00:31;;;;;;;;;;;;;;;;;;5097768;28;19943;-88
2023/04/18 13:03:00;;;;;;;;;;;;;;;;;;5082167;28;19920;-89
2023/04/18 13:05:26;;;;;;;;;;;;;;;;;;5080500;28;19911;-87
2023/04/18 13:07:54;;;;;;;;;;;;;;;;;;5092713;28;20484;-86
2023/04/18 13:10:19;;;;;;;;;;;;;;;;;;5062238;28;19943;-89
2023/04/18 13:12:46;;;;;;;;;;;;;;;;;;5066907;28;19988;-88
2023/04/18 13:15:11;;;;;;;;;;;;;;;;;;5078290;28;19912;-89
2023/04/18 13:17:40;;;;;;;;;;;;;;;;;;5078136;28;20080;-88
2023/04/18 13:20:05;;;;;;;;;;;;;;;;;;5051477;28;20902;-89
2023/04/18 13:22:30;;;;;;;;;;;;;;;;;;5065215;28;19924;-91
2023/04/18 13:24:56;;;;;;;;;;;;;;;;;;5063658;28;19916;-90
2023/04/18 13:27:28;;;;;;;;;;;;;;;;;;5059941;28;19995;-87
2023/04/18 13:29:54;;;;;;;;;;;;;;;;;;5075116;28;19927;-89
2023/04/18 13:32:19;;;;;;;;;;;;;;;;;;5058412;28;19916;-89
2023/04/18 13:34:44;;;;;;;;;;;;;;;;;;5075216;28;19920;-91
2023/04/18 13:37:10;;;;;;;;;;;;;;;;;;5060869;28;19920;-91
2023/04/18 13:39:36;;;;;;;;;;;;;;;;;;5057439;28;19948;-90
2023/04/18 13:42:02;;;;;;;;;;;;;;;;;;5058822;28;19916;-92
2023/04/18 13:44:28;;;;;;;;;;;;;;;;;;5059075;28;19959;-92
2023/04/18 13:46:54;;;;;;;;;;;;;;;;;;5074978;28;19927;-90
2023/04/18 13:49:19;;;;;;;;;;;;;;;;;;5073092;28;19920;-90
2023/04/18 13:51:49;;;;;;;;;;;;;;;;;;5065279;28;19998;-91
2023/04/18 13:54:16;;;;;;;;;;;;;;;;;;5060462;28;20286;-91
2023/04/18 13:56:41;;;;;;;;;;;;;;;;;;5058467;28;20249;-89
2023/04/18 13:59:07;;;;;;;;;;;;;;;;;;5074200;28;19916;-91
2023/04/18 14:01:36;;;;;;;;;;;;;;;;;;5057861;28;19920;-89
2023/04/18 14:04:02;;;;;;;;;;;;;;;;;;5058342;28;19973;-90
2023/04/18 14:06:28;;;;;;;;;;;;;;;;;;5053847;28;19920;-89
2023/04/18 14:08:53;;;;;;;;;;;;;;;;;;5054468;28;21569;-86
2023/04/18 14:11:37;;;;;;;;;;;;;;;;;;5056536;28;19928;-90
2023/04/18 14:23:51;;;;;;;;;;;;;;;;;;4989663;28;19977;-89
2023/04/18 14:26:21;;;;;;;;;;;;;;;;;;4983690;28;19914;-90
2023/04/18 14:28:46;;;;;;;;;;;;;;;;;;5046289;28;19916;-90
2023/04/18 14:31:12;;;;;;;;;;;;;;;;;;5057583;28;19977;-91
2023/04/18 14:33:38;;;;;;;;;;;;;;;;;;5058610;28;20420;-91
2023/04/18 14:36:06;;;;;;;;;;;;;;;;;;5070115;28;19957;-87
2023/04/18 14:38:32;;;;;;;;;;;;;;;;;;5074320;28;19912;-89
2023/04/18 14:40:59;;;;;;;;;;;;;;;;;;5072276;28;20325;-86
2023/04/18 14:43:25;;;;;;;;;;;;;;;;;;5061427;28;20406;-90
2023/04/18 14:48:41;;;;;;;;;;;;;;;;;;5021486;28;19960;-87
2023/04/18 14:54:23;;;;;;;;;;;;;;;;;;5032700;28;20323;-89
2023/04/18 14:56:48;;;;;;;;;;;;;;;;;;4984628;28;19925;-89
2023/04/18 14:59:16;;;;;;;;;;;;;;;;;;5003900;28;20254;-89
2023/04/18 15:10:30;;;;;;;;;;;;;;;;;;4995609;28;19914;-87
2023/04/18 15:19:29;;;;;;;;;;;;;;;;;;5021140;28;20062;-87
2023/04/18 15:21:58;;;;;;;;;;;;;;;;;;4979853;28;19949;-89
2023/04/18 15:24:46;;;;;;;;;;;;;;;;;;4988100;28;19961;-88
2023/04/18 15:27:12;;;;;;;;;;;;;;;;;;5053695;28;19958;-87
2023/04/18 15:29:37;;;;;;;;;;;;;;;;;;5037211;28;19998;-87
2023/04/18 15:34:52;;;;;;;;;;;;;;;;;;5063115;28;19938;-90
2023/04/18 15:37:17;;;;;;;;;;;;;;;;;;5046990;28;19931;-90
2023/04/18 15:39:43;;;;;;;;;;;;;;;;;;5057329;28;19920;-90
2023/04/18 15:42:09;;;;;;;;;;;;;;;;;;5059515;28;19920;-90
2023/04/18 15:44:37;;;;;;;;;;;;;;;;;;5062633;28;19916;-91
2023/04/18 15:47:03;;;;;;;;;;;;;;;;;;5040667;28;19922;-88
2023/04/18 15:49:31;;;;;;;;;;;;;;;;;;5060958;28;19924;-87
2023/04/18 15:51:57;;;;;;;;;;;;;;;;;;5042963;28;19920;-88
2023/04/18 15:54:43;;;;;;;;;;;;;;;;;;;;;
2023/04/18 15:57:19;;;;;;;;;;;;;;;;;;5057340;28;19924;-89
2023/04/18 15:59:45;;;;;;;;;;;;;;;;;;5055845;28;19921;-88
2023/04/18 16:02:11;;;;;;;;;;;;;;;;;;5071449;28;19916;-86
2023/04/18 16:04:36;;;;;;;;;;;;;;;;;;5040135;28;19912;-91
2023/04/18 16:07:02;;;;;;;;;;;;;;;;;;5038884;28;19944;-88
2023/04/18 16:09:28;;;;;;;;;;;;;;;;;;5036439;28;19966;-88
2023/04/18 16:11:56;;;;;;;;;;;;;;;;;;5054087;28;19948;-87
2023/04/18 16:14:21;;;;;;;;;;;;;;;;;;5053619;28;19924;-89
2023/04/18 16:16:48;;;;;;;;;;;;;;;;;;5032741;28;19993;-90
2023/04/18 16:19:14;;;;;;;;;;;;;;;;;;5049349;28;19920;-87
2023/04/18 16:21:40;;;;;;;;;;;;;;;;;;5052938;28;19920;-89
2023/04/18 16:24:05;;;;;;;;;;;;;;;;;;5034460;28;19962;-88
2023/04/18 16:26:30;;;;;;;;;;;;;;;;;;5034780;28;20016;-87
2023/04/18 16:28:56;;;;;;;;;;;;;;;;;;5036449;28;20238;-87
2023/04/18 16:31:21;;;;;;;;;;;;;;;;;;5038137;28;19916;-85
2023/04/18 16:37:03;;;;;;;;;;;;;;;;;;5071063;28;19919;-88
2023/04/18 16:39:29;;;;;;;;;;;;;;;;;;5053106;28;19916;-86
2023/04/18 16:41:55;;;;;;;;;;;;;;;;;;5073214;28;19913;-89
2023/04/18 16:44:38;;;;;;;;;;;;;;;;;;5041228;28;19916;-90
2023/04/18 16:50:21;;;;;;;;;;;;;;;;;;5064722;28;19936;-88
2023/04/18 16:52:56;;;;;;;;;;;;;;;;;;5047249;28;19921;-88
2023/04/18 16:55:25;;;;;;;;;;;;;;;;;;5056083;28;20297;-87
2023/04/18 16:57:51;;;;;;;;;;;;;;;;;;5059294;28;19916;-87
2023/04/18 17:00:17;;;;;;;;;;;;;;;;;;5058086;28;19919;-87
2023/04/18 17:02:47;;;;;;;;;;;;;;;;;;5062556;28;19912;-88
2023/04/18 17:05:12;;;;;;;;;;;;;;;;;;5061504;28;19920;-91
2023/04/18 17:07:37;;;;;;;;;;;;;;;;;;5061106;28;19926;-89
2023/04/18 17:10:03;;;;;;;;;;;;;;;;;;5063282;28;19921;-89
2023/04/18 17:12:29;;;;;;;;;;;;;;;;;;5057926;28;20338;-90
2023/04/18 17:15:01;;;;;;;;;;;;;;;;;;5056942;28;19977;-89
2023/04/18 17:17:44;;;;;;;;;;;;;;;;;;5060411;28;19967;-90
2023/04/18 17:20:16;;;;;;;;;;;;;;;;;;5075146;28;19924;-88
2023/04/18 17:22:49;;;;;;;;;;;;;;;;;;5056928;28;19915;-87
2023/04/18 17:25:25;;;;;;;;;;;;;;;;;;5091554;28;20835;-88
2023/04/18 17:27:59;;;;;;;;;;;;;;;;;;5092338;28;19944;-88
2023/04/18 17:30:32;;;;;;;;;;;;;;;;;;5061091;28;20022;-88
2023/04/18 17:32:58;;;;;;;;;;;;;;;;;;5067116;28;19951;-88
2023/04/18 17:35:26;;;;;;;;;;;;;;;;;;5064056;28;19973;-86
2023/04/18 17:41:40;;;;;;;;;;;;;;;;;;;;;
2023/04/18 17:57:39;;;;;;;;;;;;;;;;;;5095816;28;20060;-87
2023/04/18 18:00:13;;;;;;;;;;;;;;;;;;5082146;28;20388;-88
2023/04/18 18:05:57;;;;;;;;;;;;;;;;;;5110812;28;19980;-87
2023/04/18 18:24:29;;;;;;;;;;;;;;;;;;5101957;28;19927;-86
2023/04/18 18:26:55;;;;;;;;;;;;;;;;;;5059153;28;19915;-88
2023/04/18 18:29:21;;;;;;;;;;;;;;;;;;5077282;28;20902;-90
2023/04/18 18:31:46;;;;;;;;;;;;;;;;;;5063610;28;19912;-88
2023/04/18 18:34:25;;;;;;;;;;;;;;;;;;5081533;28;19966;-90
2023/04/18 18:36:53;;;;;;;;;;;;;;;;;;5091348;28;19916;-90
2023/04/18 18:39:20;;;;;;;;;;;;;;;;;;5063751;28;20005;-91
2023/04/18 18:45:06;;;;;;;;;;;;;;;;;;5094144;28;20356;-85
2023/04/18 18:48:02;;;;;;;;;;;;;;;;;;5097591;28;19924;-86
2023/04/18 18:50:28;;;;;;;;;;;;;;;;;;5078069;28;20207;-88
2023/04/18 18:52:53;;;;;;;;;;;;;;;;;;5082649;28;20349;-88
2023/04/18 18:55:23;;;;;;;;;;;;;;;;;;5064595;28;19921;-88
2023/04/18 18:57:52;;;;;;;;;;;;;;;;;;5063593;28;20461;-89